Etusivu
METAR-TAF:

METAR-TAF

Lentoasemat :

Rygge, Norja

Leveyspiiri: 59-23N, Pituuspiiri: 010-47E, korkeus merenpinnasta: 5 m

Tämänhetkinen sää

Tämä raportti tehtiin 17 minuuttia sitten, kello 00.50 UTC
Tuuli 6 kn kaakosta
Lämpötila 16°C
Kosteus 88%
Ilmanpaine 1005 hPa
Näkyvyys 10 km tai enemmän

METAR: ENRY 220050Z AUTO 13006KT 9999NDV SCT200/// 16/14 Q1005

Aika: 03:07 (01:07 UTC)

Sääennuste

Ennuste voimassa 22. päivästä klo 00 UTC - 22. päivään klo 24 UTC
Tuuli 8 kn etelästä/kaakosta
Näkyvyys 10 km tai enemmän
ei pilviä alle 1500 m:ssä eikä cumulonimbus-pilviä
Todennäköisyys 40%
22. päivästä klo 02 UTC - 22. päivään klo 06 UTC
Näkyvyys: 4000 m
Hajonneita pilviä 400 ft:n korkeudessa
utua

TAF: ENRY 2200/2224 16008KT CAVOK PROB40 2202/2206 4000 BR BKN004

Säähavainnot ja -ennusteet yli 4000 lentoasemalta (METAR- ja TAF-raportit).

Käytössä olevat sääasemat on merkitty karttaan keltaisilla ja punaisilla pisteillä.

Aseta hiiri pisteen päälle nähdäksesi sääaseman nimen.

Klikkaa sitten nähdäksesi säähavainnot ja -ennusteet.

Kartan vaihtaminen: klikkaa mustalla rastilla varustettuja vihreitä pisteitä, niin voit zoomata sisään; viivalla varustettua vihreää pistettä, niin voit zoomata ulos tai vihreitä nuolia, niin pääset viereisille kartoille.


METAR-TAF: